This is the latest recevied weather packets stored in our database for station/object F4WDE-10. If no packets are shown the sender has not sent any weather packets the latest 1 day(s).
| Time | Temp. | Humidity | Pressure | Rain* | Wind** | Luminosity | Snow |
|---|---|---|---|---|---|---|---|
| 1788566909 | 25° C | 89% | 964 hPa | - | - | - | - |
| 1788566008 | 25.56° C | 94% | 964 hPa | - | - | - | - |
| 1788565107 | 25° C | 100% | 964 hPa | - | - | - | - |
| 1788564206 | 25.56° C | 97% | 964 hPa | - | - | - | - |
| 1788563305 | 25.56° C | 98% | 964 hPa | - | - | - | - |
| 1788562404 | 25° C | 100% | 964 hPa | - | - | - | - |
| 1788561503 | 25° C | 100% | 964 hPa | - | - | - | - |
| 1788560601 | 25.56° C | 98% | 964 hPa | - | - | - | - |
| 1788559700 | 25° C | 99% | 964 hPa | - | - | - | - |
| 1788558799 | 25° C | 83% | 964 hPa | - | - | - | - |
| 1788557898 | 26.11° C | 66% | 964 hPa | - | - | - | - |
| 1788556997 | 26.11° C | 64% | 964 hPa | - | - | - | - |
| 1788556096 | 26.11° C | 65% | 965 hPa | - | - | - | - |
| 1788555195 | 25.56° C | 70% | 965 hPa | - | - | - | - |
| 1788554294 | 26.11° C | 64% | 965 hPa | - | - | - | - |
| 1788553393 | 26.11° C | 64% | 965 hPa | - | - | - | - |
| 1788552492 | 26.11° C | 64% | 965 hPa | - | - | - | - |
| 1788551590 | 26.67° C | 62% | 965 hPa | - | - | - | - |
| 1788550689 | 27.22° C | 57% | 965 hPa | - | - | - | - |
| 1788549788 | 27.22° C | 55% | 965 hPa | - | - | - | - |
| 1788548887 | 27.78° C | 55% | 965 hPa | - | - | - | - |
| 1788547986 | 27.22° C | 59% | 964 hPa | - | - | - | - |
| 1788547085 | 27.22° C | 61% | 964 hPa | - | - | - | - |
| 1788546184 | 27.78° C | 59% | 964 hPa | - | - | - | - |
| 1788545283 | 27.78° C | 59% | 964 hPa | - | - | - | - |
* Rain since midnight (hover to see other rain measurements)
** Current wind speed in m/s (hover to see current wind gust speed)